Richland, Montana
Current Conditions -  °F | °C
As of 4:53 AM on Thursday 27 Nov 2014 (Local Time) from KGGW Reporting Station
Light Snow Light Snow  
Wind Chill:   Ceiling: 2200
Heat Index: 20°   Visibility: 1.2mi
Dew Point: 16°   Wind: 16mph
Humidity: 85%   Direction: 100°E
Pressure: 30.05"   Gusts: NA
Location:  48.82°N, 106.06°W
Report Text: KGGW 271153Z AUTO 10014KT 1 1/4SM -SN BR OVC022 M07/M09 A3005 RMK AO2 SLP216 P0001 60001 70001 T10671089 11067 21089 56032
Loading
Personal Weather Stations






























Interactive Weather Map New forecast layout! Learn more

10-Day Weather Forecast

Advertisements
Track Severe Weather on mobile